Time;durP1;ratioP1;P1;durP2;ratioP2;P2;SDS_P1;SDS_P2;PMS_P1;PMS_P2;Temp;Humidity;BMP_temperature;BMP_pressure;BME280_temperature;BME280_humidity;BME280_pressure;Samples;Min_cycle;Max_cycle;Signal;HPM_P1;HPM_P2
2022/01/18 00:01:34;;;;;;;23.43;4.83;;;0.80;97.30;;;;;;5071070;28;20171;-85
2022/01/18 00:04:00;;;;;;;23.53;4.93;;;0.80;97.30;;;;;;5054838;28;20406;-85
2022/01/18 00:06:26;;;;;;;15.07;4.23;;;0.80;97.30;;;;;;5072839;28;20759;-85
2022/01/18 00:08:51;;;;;;;20.23;4.50;;;0.80;97.30;;;;;;5055128;28;20217;-86
2022/01/18 00:11:19;;;;;;;17.83;6.00;;;0.70;97.30;;;;;;5054431;28;20496;-84
2022/01/18 00:13:48;;;;;;;27.20;4.20;;;0.70;97.30;;;;;;5072159;28;20198;-85
2022/01/18 00:16:38;;;;;;;20.80;5.33;;;0.70;97.30;;;;;;5054676;28;20418;-84
2022/01/18 00:19:08;;;;;;;25.43;3.97;;;0.70;97.30;;;;;;5054038;28;20433;-85
2022/01/18 00:21:50;;;;;;;27.80;4.87;;;0.60;97.30;;;;;;5053428;28;20410;-85
2022/01/18 00:24:16;;;;;;;13.17;4.17;;;0.70;97.30;;;;;;5061550;28;20417;-86
2022/01/18 00:26:41;;;;;;;22.50;4.13;;;0.70;97.30;;;;;;5079783;28;20498;-85
2022/01/18 00:29:11;;;;;;;21.23;4.10;;;0.70;97.30;;;;;;5074465;28;20210;-85
2022/01/18 00:31:45;;;;;;;13.10;3.50;;;0.70;97.30;;;;;;5073560;28;20174;-85
2022/01/18 00:34:19;;;;;;;15.90;4.57;;;0.70;97.30;;;;;;5065699;28;20475;-85
2022/01/18 00:39:13;;;;;;;24.03;3.80;;;0.70;97.30;;;;;;5071801;28;20477;-85
2022/01/18 00:41:39;;;;;;;18.87;3.40;;;0.70;97.30;;;;;;5053744;28;20413;-85
2022/01/18 00:44:07;;;;;;;16.90;3.23;;;0.60;97.30;;;;;;5053621;28;20190;-83
2022/01/18 00:46:33;;;;;;;16.47;5.43;;;0.70;97.30;;;;;;5053891;28;20922;-85
2022/01/18 00:49:01;;;;;;;27.53;4.57;;;0.70;97.30;;;;;;5053521;28;20967;-85
2022/01/18 00:51:36;;;;;;;16.00;3.43;;;0.70;97.30;;;;;;5053771;28;20606;-84
2022/01/18 00:54:02;;;;;;;21.40;6.03;;;0.70;97.30;;;;;;5054277;28;20413;-85
2022/01/18 00:56:31;;;;;;;24.37;3.63;;;0.70;97.30;;;;;;5054070;28;20445;-84
2022/01/18 00:58:57;;;;;;;19.20;3.13;;;0.70;97.30;;;;;;5053900;28;20438;-85
2022/01/18 01:01:28;;;;;;;14.60;3.20;;;0.60;97.30;;;;;;5071618;28;20417;-85
2022/01/18 01:03:58;;;;;;;13.93;3.20;;;0.60;97.30;;;;;;5053344;28;20417;-85
2022/01/18 01:06:24;;;;;;;9.53;2.73;;;0.60;97.30;;;;;;5053658;28;20471;-85
2022/01/18 01:08:51;;;;;;;21.17;3.23;;;0.50;97.30;;;;;;5053214;28;20879;-85
2022/01/18 01:11:17;;;;;;;16.17;3.87;;;0.50;97.30;;;;;;5053532;28;20179;-85
2022/01/18 01:13:54;;;;;;;20.03;4.23;;;0.50;97.30;;;;;;5053107;28;20421;-85
2022/01/18 01:16:47;;;;;;;26.40;4.20;;;0.50;97.30;;;;;;5051285;28;20477;-85
2022/01/18 01:19:39;;;;;;;21.50;4.23;;;0.50;97.30;;;;;;5068803;28;20436;-85
2022/01/18 01:33:45;;;;;;;16.83;3.90;;;0.50;97.30;;;;;;5073541;28;20416;-85
2022/01/18 01:36:59;;;;;;;16.43;3.07;;;0.40;97.30;;;;;;5091274;28;20428;-85
2022/01/18 01:42:02;;;;;;;17.93;4.13;;;0.40;97.30;;;;;;5091042;28;20836;-85
2022/01/18 01:44:44;;;;;;;8.83;3.20;;;0.40;97.30;;;;;;5071665;28;20477;-85
2022/01/18 01:47:12;;;;;;;21.50;3.70;;;0.50;97.30;;;;;;5071980;28;21095;-85
2022/01/18 01:49:38;;;;;;;26.67;3.80;;;0.50;97.30;;;;;;5071896;28;20494;-85
2022/01/18 01:52:07;;;;;;;16.83;3.40;;;0.60;97.30;;;;;;5071884;28;20412;-85
2022/01/18 01:54:32;;;;;;;28.27;3.87;;;0.60;97.30;;;;;;5071865;28;20420;-85
2022/01/18 01:56:58;;;;;;;11.53;3.87;;;0.60;97.30;;;;;;5072215;28;20761;-85
2022/01/18 01:59:23;;;;;;;23.53;4.53;;;0.70;97.30;;;;;;5072467;28;20190;-85
2022/01/18 02:01:49;;;;;;;13.77;3.63;;;0.70;97.30;;;;;;5072498;28;20612;-85
2022/01/18 02:04:15;;;;;;;17.73;3.00;;;0.70;97.30;;;;;;5072060;28;20224;-85
2022/01/18 02:06:41;;;;;;;8.50;2.80;;;0.70;97.30;;;;;;5072182;28;20179;-85
2022/01/18 02:09:07;;;;;;;17.63;3.90;;;0.70;97.30;;;;;;5072127;28;20957;-85
2022/01/18 02:11:33;;;;;;;17.13;3.70;;;0.70;97.30;;;;;;5071139;28;20171;-85
2022/01/18 02:13:59;;;;;;;15.97;3.40;;;0.70;97.30;;;;;;5089356;28;20485;-85
2022/01/18 02:21:53;;;;;;;11.70;3.10;;;0.70;97.30;;;;;;5090029;28;20430;-85
2022/01/18 02:24:24;;;;;;;12.77;3.00;;;0.70;97.30;;;;;;5071727;28;20507;-85
2022/01/18 02:26:50;;;;;;;16.47;3.73;;;0.70;97.30;;;;;;5071964;28;20198;-85
2022/01/18 02:29:16;;;;;;;21.13;3.83;;;0.70;97.30;;;;;;5090353;28;20577;-84
2022/01/18 02:31:42;;;;;;;8.77;3.17;;;0.70;97.30;;;;;;5071774;28;20402;-85
2022/01/18 02:34:19;;;;;;;11.60;3.00;;;0.70;97.30;;;;;;5067419;28;20440;-85
2022/01/18 02:36:45;;;;;;;18.57;3.87;;;0.70;97.30;;;;;;5050648;28;20941;-85
2022/01/18 02:39:12;;;;;;;33.13;5.70;;;0.70;97.30;;;;;;5050038;28;20472;-85
2022/01/18 02:41:38;;;;;;;14.00;3.50;;;0.80;97.30;;;;;;5050723;28;20424;-84
2022/01/18 02:44:09;;;;;;;17.80;5.90;;;0.80;97.30;;;;;;5049879;28;20520;-85
2022/01/18 02:46:34;;;;;;;24.33;3.90;;;0.80;97.30;;;;;;5050418;28;20471;-85
2022/01/18 02:49:02;;;;;;;19.97;3.80;;;0.90;97.30;;;;;;5050791;28;20469;-85
2022/01/18 02:51:27;;;;;;;27.97;3.97;;;0.90;97.30;;;;;;5051252;28;20175;-85
2022/01/18 02:54:00;;;;;;;17.00;3.63;;;0.90;97.30;;;;;;5051794;28;20432;-84
2022/01/18 02:56:27;;;;;;;23.50;3.50;;;0.90;97.30;;;;;;5051575;28;20563;-85
2022/01/18 02:59:00;;;;;;;19.60;4.27;;;1.00;97.30;;;;;;5051832;28;20444;-85
2022/01/18 03:04:10;;;;;;;16.13;3.20;;;1.00;97.30;;;;;;5070039;28;20439;-83
2022/01/18 03:06:35;;;;;;;26.37;2.93;;;1.10;97.30;;;;;;5051900;28;20947;-85
2022/01/18 03:09:01;;;;;;;28.17;3.60;;;1.10;97.30;;;;;;5052165;28;20203;-84
2022/01/18 03:11:26;;;;;;;13.33;2.87;;;1.10;97.30;;;;;;5051949;28;20171;-85
2022/01/18 03:13:52;;;;;;;16.13;3.33;;;1.10;97.30;;;;;;5051454;28;20182;-85
2022/01/18 03:16:17;;;;;;;23.47;3.30;;;1.10;97.30;;;;;;5051527;28;20214;-85
2022/01/18 03:18:43;;;;;;;18.87;3.00;;;1.10;97.30;;;;;;5051215;28;20668;-85
2022/01/18 03:21:10;;;;;;;14.77;2.70;;;1.20;97.30;;;;;;5051505;28;20186;-85
2022/01/18 03:23:35;;;;;;;20.93;2.97;;;1.20;97.30;;;;;;5069590;28;20174;-85
2022/01/18 03:26:03;;;;;;;12.50;3.27;;;1.20;97.30;;;;;;5050974;28;20414;-85
2022/01/18 03:28:29;;;;;;;19.07;2.40;;;1.20;97.30;;;;;;5051674;28;20260;-85
2022/01/18 03:30:58;;;;;;;11.83;2.83;;;1.30;97.30;;;;;;5069206;28;20413;-85
2022/01/18 03:33:25;;;;;;;38.73;6.67;;;1.30;97.30;;;;;;5069895;28;20625;-84
2022/01/18 03:35:53;;;;;;;21.73;4.47;;;1.30;97.30;;;;;;5072528;28;20937;-85
2022/01/18 03:38:21;;;;;;;15.07;3.83;;;1.30;97.30;;;;;;5071054;28;20483;-85
2022/01/18 03:40:46;;;;;;;17.17;2.67;;;1.40;97.30;;;;;;5089589;28;20441;-85
2022/01/18 03:43:14;;;;;;;10.53;3.80;;;1.40;97.30;;;;;;5071010;28;20417;-85
2022/01/18 03:45:45;;;;;;;15.47;4.20;;;1.40;97.30;;;;;;5071378;28;20178;-85
2022/01/18 03:48:29;;;;;;;11.53;3.13;;;1.40;97.30;;;;;;5072351;28;20464;-85
2022/01/18 03:50:56;;;;;;;12.60;2.43;;;1.40;97.30;;;;;;5071259;28;20416;-85
2022/01/18 03:53:22;;;;;;;12.90;3.10;;;1.50;97.30;;;;;;5089809;28;20499;-85
2022/01/18 03:55:48;;;;;;;9.97;2.73;;;1.50;97.30;;;;;;5089848;28;20756;-85
2022/01/18 03:58:14;;;;;;;14.20;2.77;;;1.50;97.30;;;;;;5074763;28;20409;-85
2022/01/18 04:00:39;;;;;;;10.80;2.60;;;1.50;97.30;;;;;;5074500;28;20427;-84
2022/01/18 04:03:05;;;;;;;10.03;3.13;;;1.60;97.30;;;;;;5074474;28;20547;-85
2022/01/18 04:05:31;;;;;;;9.03;2.50;;;1.60;97.30;;;;;;5092787;28;20178;-85
2022/01/18 04:07:56;;;;;;;12.97;2.73;;;1.70;97.30;;;;;;5074852;28;20781;-85
2022/01/18 04:10:22;;;;;;;14.13;4.00;;;1.70;97.30;;;;;;5074365;28;20683;-85
2022/01/18 04:12:47;;;;;;;12.60;2.80;;;1.80;97.30;;;;;;5074581;28;20182;-85
2022/01/18 04:15:15;;;;;;;10.77;2.80;;;1.80;97.30;;;;;;5073948;28;20174;-85
2022/01/18 04:26:02;;;;;;;17.37;2.53;;;1.90;97.30;;;;;;5091606;28;20407;-84
2022/01/18 04:30:54;;;;;;;14.10;2.53;;;2.00;97.30;;;;;;5091928;28;20408;-85
2022/01/18 04:33:20;;;;;;;6.17;2.50;;;2.10;97.30;;;;;;5074069;28;20431;-85
2022/01/18 04:35:46;;;;;;;8.93;2.20;;;2.10;97.30;;;;;;5056246;28;20422;-84
2022/01/18 04:38:12;;;;;;;21.83;3.60;;;2.20;97.30;;;;;;5053861;28;20171;-85
2022/01/18 04:40:41;;;;;;;15.30;3.63;;;2.20;97.30;;;;;;5053802;28;20179;-85
2022/01/18 04:43:15;;;;;;;11.33;2.63;;;2.20;97.30;;;;;;5053563;28;20414;-85
2022/01/18 04:48:30;;;;;;;12.00;3.10;;;2.40;97.30;;;;;;5084239;28;20564;-86
2022/01/18 04:51:07;;;;;;;7.00;2.43;;;2.40;97.30;;;;;;5071447;28;20829;-85
2022/01/18 04:53:35;;;;;;;13.77;2.87;;;2.40;97.30;;;;;;5050228;28;20502;-86
2022/01/18 04:56:07;;;;;;;11.80;2.90;;;2.50;97.30;;;;;;5051847;28;20465;-85
2022/01/18 04:58:32;;;;;;;8.30;2.37;;;2.50;97.30;;;;;;5053711;28;20459;-86
2022/01/18 05:01:00;;;;;;;11.93;3.27;;;2.50;97.30;;;;;;5053510;28;20414;-85
2022/01/18 05:03:28;;;;;;;6.40;3.20;;;2.50;97.30;;;;;;5053657;28;20523;-85
2022/01/18 05:05:56;;;;;;;19.97;3.17;;;2.50;97.30;;;;;;5051828;28;20494;-86
2022/01/18 05:08:23;;;;;;;10.90;1.93;;;2.50;97.30;;;;;;5052874;28;20584;-85
2022/01/18 05:10:55;;;;;;;13.50;2.83;;;2.50;97.30;;;;;;5053874;28;20410;-85
2022/01/18 05:23:32;;;;;;;11.03;2.70;;;2.40;97.30;;;;;;5071774;28;20214;-86
2022/01/18 05:25:58;;;;;;;10.47;2.70;;;2.40;97.30;;;;;;5053544;28;20409;-85
2022/01/18 05:28:23;;;;;;;12.60;3.10;;;2.50;97.30;;;;;;5052992;28;20211;-86
2022/01/18 05:30:50;;;;;;;39.93;4.70;;;2.50;97.30;;;;;;5056834;28;20171;-86
2022/01/18 05:33:15;;;;;;;6.70;3.53;;;2.50;97.30;;;;;;5070487;28;20278;-85
2022/01/18 05:35:41;;;;;;;18.70;3.13;;;2.50;97.30;;;;;;5069905;28;20875;-85
2022/01/18 05:38:06;;;;;;;20.93;4.60;;;2.50;97.30;;;;;;5072285;28;20184;-86
2022/01/18 05:40:32;;;;;;;10.60;1.90;;;2.50;97.30;;;;;;5072686;28;20221;-86
2022/01/18 05:42:58;;;;;;;16.37;3.20;;;2.60;97.30;;;;;;5072408;28;20174;-86
2022/01/18 05:45:23;;;;;;;13.10;2.70;;;2.60;97.30;;;;;;5090715;28;20214;-85
2022/01/18 05:47:49;;;;;;;10.03;3.40;;;2.60;97.30;;;;;;5090706;28;20228;-86
2022/01/18 05:50:14;;;;;;;21.10;3.13;;;2.60;97.30;;;;;;5073013;28;20273;-85
2022/01/18 05:52:42;;;;;;;17.60;4.20;;;2.60;97.30;;;;;;5072740;28;20637;-86
2022/01/18 05:55:09;;;;;;;12.33;3.10;;;2.60;97.30;;;;;;5072853;28;20624;-86
2022/01/18 05:57:35;;;;;;;11.13;2.40;;;2.60;97.30;;;;;;5073665;28;20412;-85
2022/01/18 06:00:05;;;;;;;16.47;4.17;;;2.60;97.30;;;;;;5074802;28;20429;-85
2022/01/18 06:02:48;;;;;;;19.27;5.57;;;2.60;97.30;;;;;;5074572;28;20215;-85
2022/01/18 06:07:58;;;;;;;27.50;5.70;;;2.60;97.30;;;;;;5091604;28;20396;-86
2022/01/18 06:10:24;;;;;;;13.33;3.87;;;2.60;97.30;;;;;;5074439;28;20417;-85
2022/01/18 06:12:50;;;;;;;26.60;4.90;;;2.50;97.30;;;;;;5091967;28;20435;-84
2022/01/18 06:15:16;;;;;;;21.80;7.57;;;2.50;97.30;;;;;;5071837;28;20907;-86
2022/01/18 06:17:42;;;;;;;38.23;7.17;;;2.50;97.30;;;;;;5071730;28;20408;-85
2022/01/18 06:20:08;;;;;;;36.37;7.70;;;2.50;97.30;;;;;;5053945;28;20717;-87
2022/01/18 06:22:33;;;;;;;18.13;5.53;;;2.50;97.30;;;;;;5055342;28;20275;-84
2022/01/18 06:24:59;;;;;;;22.37;4.70;;;2.50;97.30;;;;;;5072307;28;20492;-85
2022/01/18 06:27:25;;;;;;;17.80;4.90;;;2.50;97.30;;;;;;5053053;28;20764;-85
2022/01/18 06:29:52;;;;;;;26.27;3.90;;;2.50;97.30;;;;;;5053722;28;20744;-85
2022/01/18 06:32:17;;;;;;;11.97;4.20;;;2.50;97.30;;;;;;5073018;28;20167;-88
2022/01/18 06:34:43;;;;;;;15.60;4.10;;;2.50;97.30;;;;;;5056282;28;20421;-85
2022/01/18 06:37:08;;;;;;;19.33;3.57;;;2.50;97.30;;;;;;5063980;28;20304;-85
2022/01/18 06:39:34;;;;;;;18.63;3.53;;;2.50;97.30;;;;;;5074344;28;20673;-84
2022/01/18 06:42:00;;;;;;;22.13;4.07;;;2.40;97.30;;;;;;5081652;28;20182;-85
2022/01/18 06:44:25;;;;;;;17.00;3.90;;;2.40;97.30;;;;;;5091027;28;20491;-86
2022/01/18 06:46:52;;;;;;;18.00;3.33;;;2.40;97.30;;;;;;5078246;28;20607;-85
2022/01/18 06:49:18;;;;;;;15.90;4.17;;;2.40;97.30;;;;;;5073688;28;20641;-85
2022/01/18 06:51:43;;;;;;;16.07;3.67;;;2.50;97.30;;;;;;5095402;28;20412;-85
2022/01/18 06:54:16;;;;;;;26.80;4.30;;;2.50;97.30;;;;;;5074698;28;20727;-85
2022/01/18 06:56:44;;;;;;;19.07;4.23;;;2.50;97.30;;;;;;5074505;28;20173;-85
2022/01/18 06:59:10;;;;;;;9.13;4.07;;;2.50;97.30;;;;;;5074334;28;20451;-85
2022/01/18 07:01:36;;;;;;;24.10;5.43;;;2.50;97.30;;;;;;5090857;28;20416;-85
2022/01/18 07:04:01;;;;;;;13.63;3.80;;;2.50;97.30;;;;;;5090938;28;20175;-86
2022/01/18 07:06:27;;;;;;;21.13;3.43;;;2.50;97.30;;;;;;5077806;28;20208;-86
2022/01/18 07:08:52;;;;;;;11.63;3.50;;;2.50;97.30;;;;;;5074693;28;20292;-85
2022/01/18 07:11:19;;;;;;;22.73;3.47;;;2.50;97.30;;;;;;5074320;28;20686;-86
2022/01/18 07:13:45;;;;;;;17.73;4.13;;;2.50;97.30;;;;;;5074123;28;20217;-86
2022/01/18 07:16:10;;;;;;;21.53;5.17;;;2.60;97.30;;;;;;5074178;28;20444;-86
2022/01/18 07:18:36;;;;;;;14.37;3.07;;;2.60;97.30;;;;;;5054847;28;20294;-86
2022/01/18 07:21:01;;;;;;;10.53;2.87;;;2.60;97.30;;;;;;5054039;28;20680;-86
2022/01/18 07:23:27;;;;;;;11.03;3.20;;;2.60;97.30;;;;;;5054238;28;20175;-85
2022/01/18 07:25:53;;;;;;;11.40;3.47;;;2.70;97.30;;;;;;5055278;28;20186;-85
2022/01/18 07:28:19;;;;;;;17.50;3.13;;;2.70;97.30;;;;;;5075795;28;20334;-86
2022/01/18 07:30:46;;;;;;;13.37;3.53;;;2.70;97.30;;;;;;5057590;28;20175;-85
2022/01/18 07:33:15;;;;;;;8.77;2.27;;;2.70;97.30;;;;;;5061120;28;20416;-86
2022/01/18 07:35:42;;;;;;;15.50;2.53;;;2.70;97.30;;;;;;5057955;28;20413;-85
2022/01/18 07:38:12;;;;;;;12.10;3.90;;;2.70;97.30;;;;;;5058408;28;20413;-86
2022/01/18 07:40:40;;;;;;;18.47;3.00;;;2.70;97.30;;;;;;5075356;28;20914;-86
2022/01/18 07:43:05;;;;;;;9.77;2.90;;;2.70;97.30;;;;;;5057529;28;20421;-86
2022/01/18 07:45:31;;;;;;;6.27;2.70;;;2.70;97.30;;;;;;5057368;28;20475;-85
2022/01/18 07:47:57;;;;;;;8.83;4.40;;;2.80;97.30;;;;;;5075207;28;20168;-86
2022/01/18 07:50:24;;;;;;;14.93;3.10;;;2.80;97.30;;;;;;5057652;28;20422;-86
2022/01/18 07:52:49;;;;;;;13.63;2.73;;;2.80;97.30;;;;;;5058787;28;20447;-85
2022/01/18 07:55:15;;;;;;;14.63;3.07;;;2.80;97.30;;;;;;5076631;28;20417;-86
2022/01/18 07:57:42;;;;;;;16.10;3.07;;;2.80;97.30;;;;;;5059355;28;20183;-86
2022/01/18 08:00:10;;;;;;;8.97;3.00;;;2.90;97.30;;;;;;5085392;28;20264;-86
2022/01/18 08:02:37;;;;;;;13.43;3.40;;;2.90;97.30;;;;;;5056731;28;20421;-85
2022/01/18 08:05:04;;;;;;;16.93;2.80;;;2.90;97.30;;;;;;5056855;28;20905;-86
2022/01/18 08:07:29;;;;;;;5.70;2.70;;;2.90;97.30;;;;;;5057019;28;20424;-86
2022/01/18 08:09:55;;;;;;;29.13;4.03;;;3.00;97.30;;;;;;5056772;28;20974;-85
2022/01/18 08:12:22;;;;;;;11.53;3.10;;;3.00;97.30;;;;;;5057077;28;20170;-85
2022/01/18 08:14:49;;;;;;;9.20;3.63;;;3.00;97.30;;;;;;5057064;28;20436;-86
2022/01/18 08:17:14;;;;;;;16.23;3.67;;;3.00;97.30;;;;;;5074838;28;20772;-86
2022/01/18 08:19:40;;;;;;;21.30;4.73;;;3.00;97.30;;;;;;5056796;28;20425;-85
2022/01/18 08:22:06;;;;;;;20.70;4.60;;;3.00;97.30;;;;;;5056626;28;20616;-86
2022/01/18 08:24:32;;;;;;;14.37;3.90;;;3.00;97.30;;;;;;5056357;28;20175;-85
2022/01/18 08:26:58;;;;;;;16.60;3.73;;;3.00;97.30;;;;;;5056643;28;20497;-86
2022/01/18 08:29:23;;;;;;;11.00;3.63;;;3.10;97.30;;;;;;5056297;28;20547;-85
2022/01/18 08:31:49;;;;;;;10.50;3.27;;;3.10;97.30;;;;;;5056814;28;20217;-86
2022/01/18 08:34:15;;;;;;;26.93;3.93;;;3.10;97.30;;;;;;5074228;28;20501;-86
2022/01/18 08:36:40;;;;;;;12.37;3.70;;;3.10;97.30;;;;;;5056427;28;20183;-86
2022/01/18 08:39:07;;;;;;;9.83;3.53;;;3.20;97.30;;;;;;5073955;28;20518;-85
2022/01/18 08:41:33;;;;;;;17.60;4.40;;;3.20;97.30;;;;;;5053282;28;20175;-85
2022/01/18 08:43:59;;;;;;;9.90;3.40;;;3.20;97.30;;;;;;5055102;28;20427;-85
2022/01/18 08:46:25;;;;;;;11.57;4.23;;;3.20;97.30;;;;;;5075048;28;20410;-85
2022/01/18 08:48:51;;;;;;;25.53;5.70;;;3.20;97.30;;;;;;5055973;28;20301;-85
2022/01/18 08:51:17;;;;;;;17.10;4.57;;;3.30;97.30;;;;;;5056309;28;20202;-86
2022/01/18 08:53:48;;;;;;;24.47;5.40;;;3.30;97.30;;;;;;5055981;28;20172;-85
2022/01/18 08:56:17;;;;;;;10.30;4.40;;;3.30;97.30;;;;;;5056391;28;20500;-85
2022/01/18 08:58:42;;;;;;;15.93;5.60;;;3.40;97.30;;;;;;5055985;28;20780;-86
2022/01/18 09:01:08;;;;;;;25.87;6.73;;;3.40;97.30;;;;;;5055897;28;20425;-86
2022/01/18 09:03:33;;;;;;;16.50;4.90;;;3.40;97.30;;;;;;5056001;28;20209;-86
2022/01/18 09:05:59;;;;;;;16.27;4.93;;;3.50;97.30;;;;;;5055827;28;20228;-86
2022/01/18 09:08:25;;;;;;;9.40;4.03;;;3.50;97.30;;;;;;5055745;28;20280;-86
2022/01/18 09:10:52;;;;;;;29.57;5.70;;;3.50;97.30;;;;;;5055541;28;20534;-86
2022/01/18 09:13:18;;;;;;;12.23;4.57;;;3.60;97.30;;;;;;5055731;28;20646;-86
2022/01/18 09:15:44;;;;;;;16.33;5.80;;;3.60;97.30;;;;;;5073509;28;20970;-85
2022/01/18 09:18:10;;;;;;;17.90;4.90;;;3.70;97.30;;;;;;5073564;28;20509;-86
2022/01/18 09:20:39;;;;;;;20.63;6.10;;;3.70;97.30;;;;;;5055420;28;20504;-86
2022/01/18 09:23:05;;;;;;;16.70;5.40;;;3.70;97.30;;;;;;5055288;28;20433;-86
2022/01/18 09:25:30;;;;;;;20.77;5.60;;;3.70;97.30;;;;;;5055292;28;20417;-86
2022/01/18 09:27:57;;;;;;;18.33;6.10;;;3.70;97.30;;;;;;5076540;28;20425;-85
2022/01/18 09:30:26;;;;;;;22.60;6.23;;;3.70;97.30;;;;;;5056122;28;20571;-86
2022/01/18 09:32:53;;;;;;;28.20;7.20;;;3.70;97.30;;;;;;5055492;28;20513;-85
2022/01/18 09:35:19;;;;;;;20.80;6.90;;;3.70;97.30;;;;;;5055107;28;20427;-86
2022/01/18 09:37:46;;;;;;;25.20;6.27;;;3.70;97.30;;;;;;5055273;28;20909;-86
2022/01/18 09:40:17;;;;;;;20.43;6.73;;;3.70;97.30;;;;;;5054923;28;20238;-86
2022/01/18 09:42:44;;;;;;;21.37;6.10;;;3.80;97.30;;;;;;5055286;28;20463;-85
2022/01/18 09:45:13;;;;;;;14.43;4.80;;;3.80;97.30;;;;;;5055252;28;20474;-85
2022/01/18 09:47:41;;;;;;;12.67;4.40;;;3.80;97.30;;;;;;5055225;28;20425;-86
2022/01/18 09:50:09;;;;;;;14.33;4.63;;;3.80;97.30;;;;;;5054762;28;20568;-86
2022/01/18 09:52:35;;;;;;;12.53;4.43;;;3.90;97.30;;;;;;5055005;28;20768;-86
2022/01/18 09:55:02;;;;;;;15.80;4.97;;;3.80;97.30;;;;;;5054287;28;20420;-86
2022/01/18 09:57:28;;;;;;;18.57;5.33;;;3.90;97.30;;;;;;5055290;28;20175;-86
2022/01/18 09:59:53;;;;;;;29.20;5.13;;;3.90;97.30;;;;;;5056460;28;20441;-85
2022/01/18 10:02:19;;;;;;;13.27;4.60;;;3.90;97.30;;;;;;5054699;28;20432;-85
2022/01/18 10:04:47;;;;;;;16.60;4.20;;;3.90;97.30;;;;;;5054699;28;20246;-86
2022/01/18 10:07:13;;;;;;;26.33;5.07;;;3.90;97.30;;;;;;5054590;28;20175;-86
2022/01/18 10:09:39;;;;;;;14.07;4.37;;;3.90;97.30;;;;;;5072454;28;20461;-86
2022/01/18 10:12:05;;;;;;;9.67;3.87;;;3.90;97.30;;;;;;5054489;28;20282;-86
2022/01/18 10:14:31;;;;;;;16.60;4.63;;;3.90;97.30;;;;;;5054451;28;20274;-85
2022/01/18 10:16:57;;;;;;;17.50;4.70;;;4.00;97.30;;;;;;5054432;28;20417;-86
2022/01/18 10:19:54;;;;;;;28.43;5.30;;;4.00;97.30;;;;;;5054310;28;20467;-85
2022/01/18 10:22:26;;;;;;;15.67;4.57;;;4.00;97.30;;;;;;5053958;28;20205;-86
2022/01/18 10:24:55;;;;;;;9.33;3.67;;;4.10;97.30;;;;;;5054649;28;20614;-85
2022/01/18 10:27:20;;;;;;;11.30;5.60;;;4.10;97.30;;;;;;5054576;28;20417;-86
2022/01/18 10:29:48;;;;;;;11.20;4.20;;;4.10;97.30;;;;;;5054527;28;20472;-86
2022/01/18 10:35:04;;;;;;;21.73;5.53;;;4.10;97.30;;;;;;5072552;28;20410;-86
2022/01/18 10:37:30;;;;;;;10.93;4.17;;;4.10;97.30;;;;;;5072241;28;20175;-86
2022/01/18 10:40:26;;;;;;;15.47;4.50;;;4.20;97.30;;;;;;5053781;28;20879;-85
2022/01/18 10:42:53;;;;;;;14.53;3.97;;;4.10;97.30;;;;;;5052585;28;20418;-86
2022/01/18 10:45:23;;;;;;;14.10;4.73;;;4.20;97.30;;;;;;5054193;28;20514;-85
2022/01/18 10:47:59;;;;;;;13.67;5.10;;;4.20;97.30;;;;;;5072494;28;20413;-85
2022/01/18 10:50:29;;;;;;;25.20;4.57;;;4.20;97.30;;;;;;5054393;28;20421;-86
2022/01/18 10:53:20;;;;;;;15.33;4.23;;;4.20;97.30;;;;;;5054605;28;20405;-86
2022/01/18 10:55:49;;;;;;;11.07;4.20;;;4.20;97.30;;;;;;5072091;28;20385;-86
2022/01/18 10:58:18;;;;;;;10.93;4.43;;;4.20;97.30;;;;;;5054016;28;20423;-85
2022/01/18 11:00:44;;;;;;;11.73;4.63;;;4.30;97.30;;;;;;5071833;28;20405;-86
2022/01/18 11:03:10;;;;;;;15.43;5.10;;;4.30;97.30;;;;;;5053949;28;20410;-86
2022/01/18 11:05:38;;;;;;;16.30;4.90;;;4.40;97.30;;;;;;5055585;28;20590;-85
2022/01/18 11:08:06;;;;;;;14.77;4.30;;;4.40;97.30;;;;;;5060484;28;20417;-86
2022/01/18 11:10:43;;;;;;;13.50;4.83;;;4.40;97.30;;;;;;5060451;28;20417;-86
2022/01/18 11:13:12;;;;;;;13.50;4.97;;;4.40;97.30;;;;;;5056296;28;20409;-86
2022/01/18 11:15:45;;;;;;;8.47;4.20;;;4.40;97.30;;;;;;5073699;28;20410;-85
2022/01/18 11:18:15;;;;;;;14.63;4.90;;;4.30;97.30;;;;;;5055839;28;20416;-86
2022/01/18 11:20:44;;;;;;;17.27;4.20;;;4.30;97.30;;;;;;5055019;28;20935;-85
2022/01/18 11:23:10;;;;;;;12.07;4.27;;;4.40;97.30;;;;;;5055678;28;20416;-86
2022/01/18 11:25:37;;;;;;;12.27;4.20;;;4.40;97.30;;;;;;5077222;28;20404;-85
2022/01/18 11:28:05;;;;;;;11.47;4.70;;;4.50;97.30;;;;;;5077342;28;20408;-85
2022/01/18 11:30:36;;;;;;;15.17;5.50;;;4.50;97.30;;;;;;5061747;28;20564;-86
2022/01/18 11:33:05;;;;;;;15.13;4.83;;;4.60;97.30;;;;;;5058158;28;21002;-85
2022/01/18 11:35:48;;;;;;;10.33;4.33;;;4.60;97.30;;;;;;5057459;28;20474;-86
2022/01/18 11:38:34;;;;;;;11.77;4.30;;;4.60;97.30;;;;;;5057495;28;20405;-86
2022/01/18 11:41:02;;;;;;;12.87;5.07;;;4.70;97.30;;;;;;5057501;28;20800;-86
2022/01/18 11:43:42;;;;;;;9.23;4.00;;;4.70;97.30;;;;;;5057413;28;20462;-86
2022/01/18 11:46:34;;;;;;;17.00;4.87;;;4.80;97.30;;;;;;5074907;28;20416;-86
2022/01/18 11:49:05;;;;;;;12.50;4.00;;;4.90;97.30;;;;;;5056874;28;20475;-86
2022/01/18 11:52:05;;;;;;;16.57;4.70;;;5.00;97.30;;;;;;5057349;28;20436;-83
2022/01/18 11:54:43;;;;;;;8.53;3.20;;;5.20;97.30;;;;;;5057358;28;20440;-83
2022/01/18 11:57:24;;;;;;;13.83;3.67;;;5.40;97.30;;;;;;5057236;28;20401;-83
2022/01/18 11:59:49;;;;;;;11.43;3.90;;;5.50;97.30;;;;;;5074839;28;20481;-83
2022/01/18 12:02:30;;;;;;;15.27;5.20;;;5.50;97.30;;;;;;5074567;28;20413;-84
2022/01/18 12:05:02;;;;;;;10.40;4.00;;;5.60;97.30;;;;;;5056733;28;20211;-83
2022/01/18 12:07:34;;;;;;;8.10;4.00;;;5.70;97.30;;;;;;5068181;28;20424;-84
2022/01/18 12:10:07;;;;;;;12.10;3.43;;;5.70;97.30;;;;;;5075897;28;20543;-84
2022/01/18 12:12:42;;;;;;;8.13;3.20;;;5.70;97.30;;;;;;5076950;28;20504;-84
2022/01/18 12:15:19;;;;;;;9.13;3.10;;;5.70;97.30;;;;;;5076714;28;20434;-84
2022/01/18 12:17:49;;;;;;;8.20;2.80;;;5.60;97.30;;;;;;5075353;28;20416;-83
2022/01/18 12:20:35;;;;;;;9.03;3.13;;;5.60;97.30;;;;;;5094867;28;20444;-84
2022/01/18 12:23:12;;;;;;;6.60;3.03;;;5.50;97.30;;;;;;5076623;28;20432;-83
2022/01/18 12:25:55;;;;;;;7.57;3.00;;;5.50;97.30;;;;;;5077341;28;20526;-85
2022/01/18 12:29:18;;;;;;;4.43;2.20;;;5.50;97.30;;;;;;5076482;28;21151;-85
2022/01/18 12:34:30;;;;;;;4.77;2.60;;;5.40;97.30;;;;;;5094921;28;20377;-85
2022/01/18 12:37:07;;;;;;;5.07;3.17;;;5.50;97.30;;;;;;5076408;28;20401;-85
2022/01/18 12:40:03;;;;;;;10.47;2.93;;;5.50;97.30;;;;;;5076021;28;20514;-85
2022/01/18 12:45:09;;;;;;;7.03;2.70;;;5.50;97.30;;;;;;5094606;28;20388;-86
2022/01/18 12:47:42;;;;;;;11.50;2.80;;;5.50;97.30;;;;;;5076252;28;20421;-85
2022/01/18 12:50:14;;;;;;;8.53;3.07;;;5.50;97.30;;;;;;5076070;28;21005;-85
2022/01/18 12:52:56;;;;;;;8.87;4.10;;;5.50;97.30;;;;;;5077711;28;20416;-86
2022/01/18 12:55:38;;;;;;;6.00;2.30;;;5.50;97.30;;;;;;5075755;28;20918;-86
2022/01/18 12:58:20;;;;;;;7.37;4.03;;;5.50;97.30;;;;;;5076044;28;20441;-86
2022/01/18 13:00:47;;;;;;;8.60;2.37;;;5.50;97.30;;;;;;5093960;28;20400;-85
2022/01/18 13:03:18;;;;;;;6.73;2.07;;;5.40;97.30;;;;;;5075998;28;20401;-85
2022/01/18 13:05:45;;;;;;;7.23;2.80;;;5.40;97.30;;;;;;5071517;28;20424;-85
2022/01/18 13:08:14;;;;;;;5.03;2.77;;;5.40;97.30;;;;;;5055566;28;20512;-85
2022/01/18 13:10:41;;;;;;;8.73;2.70;;;5.50;97.30;;;;;;5073619;28;20417;-85
2022/01/18 13:13:08;;;;;;;12.97;3.20;;;5.50;97.30;;;;;;5055690;28;20422;-85
2022/01/18 13:24:42;;;;;;;18.00;3.30;;;5.50;97.30;;;;;;5075617;28;21054;-86
2022/01/18 13:27:13;;;;;;;13.03;2.57;;;5.50;97.30;;;;;;5072798;28;20947;-85
2022/01/18 13:29:38;;;;;;;6.03;3.10;;;5.50;97.30;;;;;;5055111;28;20469;-86
2022/01/18 13:32:18;;;;;;;4.87;2.60;;;5.50;97.30;;;;;;5055637;28;20500;-85
2022/01/18 13:34:46;;;;;;;7.00;2.73;;;5.50;97.30;;;;;;5077301;28;20166;-85
2022/01/18 13:37:15;;;;;;;11.10;3.90;;;5.50;97.30;;;;;;5073034;28;20471;-85
2022/01/18 13:39:48;;;;;;;4.90;3.13;;;5.50;97.30;;;;;;5072629;28;20465;-85
2022/01/18 13:42:28;;;;;;;7.30;2.97;;;5.50;97.30;;;;;;5074251;28;20871;-86
2022/01/18 13:45:06;;;;;;;7.23;2.70;;;5.60;97.30;;;;;;5075107;28;20515;-85
2022/01/18 13:47:55;;;;;;;5.90;2.43;;;5.60;97.30;;;;;;5075195;28;20598;-86
2022/01/18 13:50:41;;;;;;;9.80;2.60;;;5.60;97.30;;;;;;5074975;28;20475;-85
2022/01/18 13:53:21;;;;;;;10.20;2.90;;;5.60;97.30;;;;;;5075239;28;20405;-85
2022/01/18 13:55:51;;;;;;;8.87;2.90;;;5.60;97.30;;;;;;5093325;28;20401;-85
2022/01/18 13:58:24;;;;;;;9.40;2.87;;;5.60;97.30;;;;;;5093097;28;20401;-85
2022/01/18 14:00:51;;;;;;;5.60;2.80;;;5.60;97.30;;;;;;5075204;28;20416;-85
2022/01/18 14:03:50;;;;;;;11.27;3.60;;;5.60;97.30;;;;;;5092826;28;20775;-85
2022/01/18 14:06:17;;;;;;;4.37;3.10;;;5.60;97.30;;;;;;5024137;28;20775;-86
2022/01/18 14:08:48;;;;;;;6.60;2.63;;;5.60;97.30;;;;;;5089100;28;20458;-85